.
WxDataArchive / Data Records for 2007-02-01
2007-01-31 February 2007 2007-02-02

Data Records for Thursday, 01 February 2007

Time	Temp	Chill	HIndex	Humid	Dewpt	 Wind 	HiWind	WindDir	Rain 	Barom 
-----	----	-----	------	-----	-----	------	------	-------	-----	----- 
00:00	17.3	17.3	17.3	68	8.6	0	1	202	0.00	29.931 
00:05	17.2	17.2	17.2	68	8.5	0	0	---	0.00	29.931 
00:10	17.0	17.0	17.0	68	8.3	0	1	202	0.00	29.931 
00:15	16.7	16.7	16.7	70	8.6	0	1	202	0.00	29.917 
00:20	16.7	16.7	16.7	70	8.6	0	1	180	0.00	29.917 
00:25	16.7	16.7	16.7	70	8.6	0	1	180	0.00	29.917 
00:30	16.5	16.5	16.5	70	8.5	0	0	---	0.00	29.911 
00:35	16.4	16.4	16.4	71	8.7	0	1	180	0.00	29.911 
00:40	16.1	16.1	16.1	71	8.4	0	1	180	0.00	29.911 
00:45	15.9	15.9	15.9	72	8.5	0	0	---	0.00	29.907 
00:50	15.6	15.6	15.6	72	8.2	0	0	---	0.00	29.907 
00:55	15.2	15.2	15.2	72	7.8	0	0	---	0.00	29.907 
01:00	14.9	14.9	14.9	73	7.8	0	0	---	0.00	29.906 
01:05	14.6	14.6	14.6	74	7.8	0	0	---	0.00	29.906 
01:10	14.3	14.3	14.3	74	7.6	0	0	---	0.00	29.906 
01:15	14.0	14.0	14.0	76	7.9	0	0	---	0.00	29.906 
01:20	13.6	13.6	13.6	77	7.8	0	0	---	0.00	29.906 
01:25	13.5	13.5	13.5	77	7.7	0	0	---	0.00	29.906 
01:30	13.1	13.1	13.1	77	7.3	0	0	---	0.00	29.906 
01:35	12.8	12.8	12.8	77	7.0	0	0	---	0.00	29.906 
01:40	12.6	12.6	12.6	79	7.3	0	0	---	0.00	29.906 
01:45	12.6	12.6	12.6	80	7.6	0	0	---	0.00	29.902 
01:50	12.6	12.6	12.6	81	7.9	0	0	---	0.00	29.902 
01:55	12.9	12.9	12.9	81	8.2	0	0	---	0.00	29.902 
02:00	13.1	13.1	13.1	81	8.4	0	0	---	0.00	29.894 
02:05	13.5	13.5	13.5	81	8.8	0	0	---	0.00	29.894 
02:10	13.8	13.8	13.8	81	9.1	0	0	---	0.00	29.894 
02:15	14.3	14.3	14.3	81	9.6	0	1	180	0.00	29.889 
02:20	14.8	14.8	14.8	80	9.8	0	0	---	0.00	29.889 
02:25	15.2	15.2	15.2	80	10.2	0	1	180	0.00	29.889 
02:30	15.7	15.7	15.7	79	10.4	0	1	180	0.00	29.884 
02:35	16.4	16.4	16.4	78	10.8	0	1	180	0.00	29.884 
02:40	16.9	16.9	16.9	77	11.0	0	1	180	0.00	29.884 
02:45	17.2	17.2	17.2	75	10.7	0	1	180	0.00	29.881 
02:50	17.7	17.7	17.7	74	10.8	0	2	202	0.00	29.881 
02:55	18.0	18.0	18.0	73	10.8	1	4	248	0.00	29.881 
03:00	18.3	18.3	18.3	72	10.8	0	2	248	0.00	29.877 
03:05	18.4	18.4	18.4	71	10.6	0	2	248	0.00	29.877 
03:10	18.6	18.6	18.6	71	10.8	1	3	248	0.00	29.877 
03:15	18.8	18.8	18.8	70	10.7	1	4	248	0.00	29.868 
03:20	18.9	18.9	18.9	69	10.4	1	4	248	0.00	29.868 
03:25	19.1	19.1	19.1	69	10.6	1	4	248	0.00	29.868 
03:30	19.2	19.2	19.2	69	10.7	1	4	225	0.00	29.866 
03:35	19.2	19.2	19.2	69	10.7	1	3	270	0.00	29.866 
03:40	19.2	19.2	19.2	69	10.7	1	5	248	0.00	29.866 
03:45	19.2	19.2	19.2	69	10.7	1	3	248	0.00	29.862 
03:50	19.2	19.2	19.2	69	10.7	1	3	248	0.00	29.862 
03:55	19.2	19.2	19.2	69	10.7	1	5	248	0.00	29.862 
04:00	19.2	19.2	19.2	69	10.7	1	3	248	0.00	29.854 
04:05	19.2	19.2	19.2	69	10.7	1	4	248	0.00	29.854 
04:10	19.2	19.2	19.2	69	10.7	1	4	248	0.00	29.854 
04:15	19.2	19.2	19.2	69	10.7	0	2	270	0.00	29.852 
04:20	19.4	19.4	19.4	69	10.9	1	3	248	0.00	29.852 
04:25	19.4	19.4	19.4	69	10.9	0	3	248	0.00	29.852 
04:30	19.4	19.4	19.4	69	10.9	1	4	248	0.00	29.851 
04:35	19.4	19.4	19.4	69	10.9	1	4	248	0.00	29.851 
04:40	19.4	19.4	19.4	69	10.9	1	4	248	0.00	29.851 
04:45	19.5	19.5	19.5	69	11.0	2	5	248	0.00	29.849 
04:50	19.5	19.5	19.5	69	11.0	1	5	248	0.00	29.849 
04:55	19.7	19.7	19.7	70	11.5	1	3	248	0.00	29.849 
05:00	19.7	19.7	19.7	70	11.5	1	4	248	0.00	29.849 
05:05	19.7	19.7	19.7	70	11.5	1	4	248	0.00	29.849 
05:10	19.9	19.9	19.9	71	12.0	1	4	248	0.00	29.849 
05:15	19.9	19.9	19.9	71	12.0	1	5	225	0.00	29.846 
05:20	19.9	19.9	19.9	72	12.4	1	3	248	0.00	29.846 
05:25	20.0	20.0	20.0	72	12.5	2	5	248	0.00	29.846 
05:30	20.0	20.0	20.0	72	12.5	1	4	248	0.00	29.837 
05:35	20.2	20.2	20.2	73	13.0	2	5	248	0.00	29.837 
05:40	20.2	20.2	20.2	73	13.0	1	4	248	0.00	29.837 
05:45	20.2	20.2	20.2	73	13.0	2	6	248	0.00	29.835 
05:50	20.2	20.2	20.2	74	13.3	1	4	248	0.00	29.835 
05:55	20.3	20.3	20.3	74	13.4	2	4	248	0.00	29.835 
06:00	20.3	20.3	20.3	74	13.4	2	5	248	0.00	29.833 
06:05	20.3	20.3	20.3	74	13.4	1	6	248	0.00	29.833 
06:10	20.3	20.3	20.3	75	13.7	1	5	248	0.00	29.833 
06:15	20.5	20.5	20.5	75	13.9	2	6	248	0.00	29.834 
06:20	20.5	20.5	20.5	75	13.9	1	6	248	0.00	29.834 
06:25	20.5	20.5	20.5	76	14.2	2	5	248	0.00	29.834 
06:30	20.5	20.5	20.5	76	14.2	2	9	248	0.00	29.828 
06:35	20.5	20.5	20.5	76	14.2	2	6	248	0.00	29.828 
06:40	20.5	20.5	20.5	76	14.2	2	6	248	0.00	29.828 
06:45	20.5	20.5	20.5	77	14.5	2	6	248	0.00	29.825 
06:50	20.5	20.5	20.5	77	14.5	1	4	248	0.00	29.825 
06:55	20.3	20.3	20.3	77	14.3	2	6	248	0.00	29.825 
07:00	20.3	20.3	20.3	78	14.6	1	5	248	0.00	29.826 
07:05	20.3	20.3	20.3	78	14.6	2	5	248	0.00	29.826 
07:10	20.3	20.3	20.3	78	14.6	1	4	248	0.00	29.826 
07:15	20.2	20.2	20.2	78	14.5	2	5	248	0.00	29.820 
07:20	20.2	20.2	20.2	79	14.8	1	3	248	0.00	29.820 
07:25	20.0	20.0	20.0	79	14.6	1	5	248	0.00	29.820 
07:30	20.0	20.0	20.0	79	14.6	1	5	248	0.00	29.818 
07:35	20.0	20.0	20.0	80	14.8	1	3	225	0.00	29.818 
07:40	19.9	19.9	19.9	80	14.7	1	3	248	0.00	29.818 
07:45	19.9	19.9	19.9	80	14.7	1	3	270	0.00	29.818 
07:50	19.9	19.9	19.9	81	15.0	1	4	248	0.00	29.818 
07:55	19.9	19.9	19.9	81	15.0	1	4	248	0.00	29.818 
08:00	19.9	19.9	19.9	81	15.0	1	3	248	0.00	29.820 
08:05	19.9	19.9	19.9	81	15.0	1	3	248	0.00	29.820 
08:10	20.0	20.0	20.0	81	15.1	1	3	248	0.00	29.820 
08:15	20.0	20.0	20.0	81	15.1	1	2	248	0.00	29.823 
08:20	20.2	20.2	20.2	82	15.6	2	5	248	0.00	29.823 
08:25	20.2	20.2	20.2	81	15.3	2	6	248	0.00	29.823 
08:30	20.3	20.3	20.3	82	15.7	1	5	248	0.00	29.830 
08:35	20.3	20.3	20.3	81	15.4	1	5	248	0.00	29.830 
08:40	20.5	20.5	20.5	81	15.6	1	3	248	0.00	29.830 
08:45	20.5	20.5	20.5	81	15.6	1	5	248	0.00	29.831 
08:50	20.6	20.6	20.6	81	15.7	2	5	248	0.00	29.831 
08:55	20.6	20.6	20.6	81	15.7	1	5	248	0.00	29.831 
09:00	20.8	20.8	20.8	81	15.9	2	4	248	0.00	29.829 
09:05	20.8	20.8	20.8	82	16.2	1	4	248	0.00	29.829 
09:10	21.0	21.0	21.0	82	16.4	2	4	248	0.00	29.829 
09:15	21.1	21.1	21.1	82	16.5	1	4	248	0.00	29.831 
09:20	21.1	21.1	21.1	81	16.2	1	4	248	0.00	29.831 
09:25	21.3	21.3	21.3	81	16.4	1	4	248	0.00	29.831 
09:30	21.4	21.4	21.4	81	16.5	1	2	248	0.00	29.824 
09:35	21.4	21.4	21.4	81	16.5	2	7	248	0.00	29.824 
09:40	21.6	21.6	21.6	81	16.7	1	5	270	0.00	29.824 
09:45	21.8	21.8	21.8	81	16.9	2	6	248	0.00	29.817 
09:50	21.8	21.8	21.8	81	16.9	2	5	248	0.00	29.817 
09:55	21.8	21.8	21.8	81	16.9	2	5	248	0.00	29.817 
10:00	21.9	21.9	21.9	80	16.7	2	5	270	0.00	29.822 
10:05	22.1	22.1	22.1	80	16.9	1	3	248	0.00	29.822 
10:10	22.1	22.1	22.1	80	16.9	2	4	248	0.00	29.822 
10:15	22.2	22.2	22.2	80	17.0	1	4	248	0.00	29.827 
10:20	22.2	22.2	22.2	80	17.0	1	4	225	0.00	29.827 
10:25	22.4	22.4	22.4	79	16.9	3	7	248	0.00	29.827 
10:30	22.5	22.5	22.5	79	17.0	2	4	248	0.00	29.827 
10:35	22.7	22.7	22.7	78	16.9	2	5	248	0.00	29.827 
10:40	22.9	22.9	22.9	77	16.8	3	8	248	0.00	29.827 
10:45	22.9	22.9	22.9	77	16.8	2	5	248	0.00	29.829 
10:50	23.0	23.0	23.0	77	16.9	2	7	248	0.00	29.829 
10:55	23.2	23.2	23.2	75	16.5	3	6	248	0.00	29.829 
11:00	23.3	23.3	23.3	75	16.6	2	5	248	0.00	29.834 
11:05	23.3	23.3	23.3	74	16.3	3	9	248	0.00	29.834 
11:10	23.5	23.5	23.5	74	16.5	3	7	248	0.00	29.834 
11:15	23.8	23.8	23.8	74	16.7	2	6	248	0.00	29.839 
11:20	24.1	24.1	24.1	73	16.7	1	4	248	0.00	29.839 
11:25	23.9	23.9	23.9	73	16.5	3	9	248	0.00	29.839 
11:30	23.9	23.9	23.9	73	16.5	2	7	248	0.00	29.836 
11:35	23.9	23.9	23.9	72	16.2	3	11	248	0.00	29.836 
11:40	23.9	23.9	23.9	73	16.5	2	7	270	0.00	29.836 
11:45	23.8	18.6	23.8	73	16.4	4	11	248	0.00	29.832 
11:50	23.8	18.6	23.8	73	16.4	4	11	270	0.00	29.832 
11:55	23.8	23.8	23.8	74	16.7	2	5	248	0.00	29.832 
12:00	24.1	24.1	24.1	73	16.7	2	8	248	0.00	29.830 
12:05	24.2	24.2	24.2	72	16.5	3	10	248	0.00	29.830 
12:10	24.2	19.1	24.2	71	16.2	4	7	270	0.00	29.830 
12:15	24.2	24.2	24.2	71	16.2	3	9	248	0.00	29.823 
12:20	24.2	24.2	24.2	72	16.5	3	8	248	0.00	29.823 
12:25	24.4	19.3	24.4	71	16.4	4	8	248	0.00	29.823 
12:30	24.5	24.5	24.5	71	16.5	3	7	248	0.00	29.818 
12:35	24.7	24.7	24.7	70	16.3	3	7	248	0.00	29.818 
12:40	25.0	25.0	25.0	70	16.6	2	6	248	0.00	29.818 
12:45	25.3	25.3	25.3	69	16.6	3	8	248	0.00	29.815 
12:50	25.3	25.3	25.3	69	16.6	3	9	248	0.00	29.815 
12:55	25.4	25.4	25.4	69	16.7	2	5	270	0.00	29.815 
13:00	25.6	25.6	25.6	69	16.9	3	7	270	0.00	29.810 
13:05	25.7	25.7	25.7	69	17.0	3	7	248	0.00	29.810 
13:10	26.1	26.1	26.1	69	17.3	1	4	248	0.00	29.810 
13:15	25.8	20.9	25.8	69	17.1	4	10	248	0.00	29.807 
13:20	25.7	25.7	25.7	68	16.6	3	7	248	0.00	29.807 
13:25	25.7	25.7	25.7	68	16.6	3	10	248	0.00	29.807 
13:30	25.7	25.7	25.7	68	16.6	3	6	248	0.00	29.802 
13:35	25.7	25.7	25.7	68	16.6	3	6	248	0.00	29.802 
13:40	25.6	25.6	25.6	68	16.5	3	6	248	0.00	29.802 
13:45	25.4	25.4	25.4	68	16.3	3	7	248	0.00	29.800 
13:50	25.4	25.4	25.4	68	16.3	3	8	248	0.00	29.800 
13:55	25.3	25.3	25.3	69	16.6	3	10	248	0.00	29.800 
14:00	25.1	25.1	25.1	69	16.4	3	6	248	0.00	29.791 
14:05	25.0	25.0	25.0	70	16.6	2	6	248	0.00	29.791 
14:10	25.1	25.1	25.1	71	17.0	2	6	270	0.00	29.791 
14:15	25.1	25.1	25.1	70	16.7	3	6	248	0.00	29.782 
14:20	25.1	25.1	25.1	71	17.0	1	3	270	0.00	29.782 
14:25	25.1	25.1	25.1	72	17.4	2	6	248	0.00	29.782 
14:30	25.1	25.1	25.1	72	17.4	2	6	248	0.00	29.781 
14:35	25.1	25.1	25.1	72	17.4	3	5	248	0.00	29.781 
14:40	25.3	25.3	25.3	72	17.6	2	5	248	0.00	29.781 
14:45	25.3	25.3	25.3	73	17.9	1	5	248	0.00	29.775 
14:50	25.4	25.4	25.4	73	18.0	1	4	225	0.00	29.775 
14:55	25.7	25.7	25.7	73	18.3	0	2	248	0.00	29.775 
15:00	25.7	25.7	25.7	73	18.3	1	3	248	0.00	29.766 
15:05	25.7	25.7	25.7	73	18.3	0	3	248	0.00	29.766 
15:10	25.6	25.6	25.6	73	18.2	1	3	248	0.00	29.766 
15:15	25.6	25.6	25.6	73	18.2	1	5	225	0.00	29.766 
15:20	25.4	25.4	25.4	73	18.0	1	5	248	0.00	29.766 
15:25	25.3	25.3	25.3	72	17.6	2	5	248	0.00	29.766 
15:30	25.3	25.3	25.3	74	18.2	1	4	248	0.00	29.769 
15:35	25.3	25.3	25.3	73	17.9	1	4	248	0.00	29.769 
15:40	25.4	25.4	25.4	73	18.0	2	6	248	0.00	29.769 
15:45	25.4	25.4	25.4	73	18.0	1	4	248	0.00	29.763 
15:50	25.4	25.4	25.4	73	18.0	1	5	248	0.00	29.763 
15:55	25.6	25.6	25.6	74	18.5	0	2	248	0.00	29.763 
16:00	25.6	25.6	25.6	74	18.5	1	4	248	0.00	29.763 
16:05	25.6	25.6	25.6	75	18.8	0	1	248	0.00	29.763 
16:10	25.6	25.6	25.6	74	18.5	1	3	248	0.00	29.763 
16:15	25.7	25.7	25.7	75	18.9	0	3	270	0.00	29.755 
16:20	25.7	25.7	25.7	74	18.6	0	3	270	0.00	29.755 
16:25	25.8	25.8	25.8	74	18.7	1	2	248	0.00	29.755 
16:30	25.7	25.7	25.7	74	18.6	0	2	248	0.00	29.755 
16:35	25.6	25.6	25.6	74	18.5	1	5	248	0.00	29.755 
16:40	25.6	25.6	25.6	74	18.5	0	1	270	0.00	29.755 
16:45	25.7	25.7	25.7	74	18.6	1	3	270	0.00	29.756 
16:50	25.6	25.6	25.6	74	18.5	1	2	248	0.00	29.756 
16:55	25.4	25.4	25.4	75	18.6	0	1	248	0.00	29.756 
17:00	25.4	25.4	25.4	75	18.6	0	3	248	0.00	29.750 
17:05	25.3	25.3	25.3	74	18.2	2	5	248	0.00	29.750 
17:10	25.1	25.1	25.1	74	18.0	1	3	248	0.00	29.750 
17:15	25.1	25.1	25.1	75	18.3	0	2	248	0.00	29.748 
17:20	25.0	25.0	25.0	75	18.2	0	2	248	0.00	29.748 
17:25	25.0	25.0	25.0	76	18.5	0	1	248	0.00	29.748 
17:30	24.8	24.8	24.8	75	18.0	1	3	248	0.00	29.741 
17:35	24.8	24.8	24.8	76	18.3	0	2	248	0.00	29.741 
17:40	24.7	24.7	24.7	76	18.2	0	2	248	0.00	29.741 
17:45	24.7	24.7	24.7	75	17.9	1	3	248	0.00	29.747 
17:50	24.7	24.7	24.7	75	17.9	1	3	248	0.00	29.747 
17:55	24.5	24.5	24.5	75	17.7	0	3	248	0.00	29.747 
18:00	24.5	24.5	24.5	75	17.7	0	1	248	0.00	29.747 
18:05	24.4	24.4	24.4	76	17.9	0	1	248	0.00	29.747 
18:10	24.4	24.4	24.4	76	17.9	0	2	248	0.00	29.747 
18:15	24.2	24.2	24.2	76	17.7	0	1	248	0.00	29.749 
18:20	24.2	24.2	24.2	76	17.7	0	1	248	0.00	29.749 
18:25	24.2	24.2	24.2	76	17.7	1	3	248	0.00	29.749 
18:30	24.2	24.2	24.2	76	17.7	0	2	248	0.00	29.753 
18:35	24.1	24.1	24.1	76	17.7	1	3	248	0.00	29.753 
18:40	24.1	24.1	24.1	76	17.7	1	2	248	0.00	29.753 
18:45	24.1	24.1	24.1	76	17.7	1	2	248	0.00	29.759 
18:50	24.1	24.1	24.1	76	17.7	1	3	248	0.00	29.759 
18:55	24.1	24.1	24.1	76	17.7	0	3	248	0.00	29.759 
19:00	24.1	24.1	24.1	76	17.7	0	3	248	0.00	29.763 
19:05	24.1	24.1	24.1	76	17.7	0	2	248	0.00	29.763 
19:10	24.1	24.1	24.1	77	18.0	1	4	248	0.00	29.763 
19:15	24.1	24.1	24.1	77	18.0	0	1	248	0.00	29.768 
19:20	24.1	24.1	24.1	77	18.0	0	2	248	0.00	29.768 
19:25	24.1	24.1	24.1	77	18.0	0	1	248	0.00	29.768 
19:30	24.1	24.1	24.1	77	18.0	0	1	248	0.00	29.774 
19:35	24.1	24.1	24.1	77	18.0	0	2	248	0.00	29.774 
19:40	23.9	23.9	23.9	77	17.8	0	1	248	0.00	29.774 
19:45	23.9	23.9	23.9	77	17.8	0	1	248	0.00	29.776 
19:50	23.9	23.9	23.9	77	17.8	0	3	248	0.00	29.776 
19:55	23.9	23.9	23.9	77	17.8	0	3	248	0.00	29.776 
20:00	23.9	23.9	23.9	78	18.1	0	2	248	0.00	29.781 
20:05	23.9	23.9	23.9	78	18.1	0	1	248	0.00	29.781 
20:10	23.9	23.9	23.9	78	18.1	0	1	248	0.00	29.781 
20:15	23.8	23.8	23.8	78	18.0	0	1	248	0.00	29.784 
20:20	23.8	23.8	23.8	78	18.0	1	3	248	0.00	29.784 
20:25	23.8	23.8	23.8	78	18.0	1	3	248	0.00	29.784 
20:30	23.8	23.8	23.8	78	18.0	0	3	248	0.00	29.790 
20:35	23.8	23.8	23.8	79	18.3	0	2	248	0.00	29.790 
20:40	23.8	23.8	23.8	79	18.3	0	2	248	0.00	29.790 
20:45	23.8	23.8	23.8	79	18.3	1	3	248	0.00	29.790 
20:50	23.8	23.8	23.8	80	18.5	0	2	248	0.00	29.790 
20:55	23.6	23.6	23.6	80	18.4	1	3	248	0.00	29.790 
21:00	23.6	23.6	23.6	80	18.4	0	2	248	0.00	29.791 
21:05	23.6	23.6	23.6	81	18.6	0	1	248	0.00	29.791 
21:10	23.5	23.5	23.5	81	18.5	0	2	248	0.00	29.791 
21:15	23.5	23.5	23.5	81	18.5	0	2	248	0.00	29.785 
21:20	23.3	23.3	23.3	81	18.3	0	1	248	0.00	29.785 
21:25	23.3	23.3	23.3	81	18.3	0	1	248	0.00	29.785 
21:30	23.3	23.3	23.3	81	18.3	0	2	248	0.00	29.791 
21:35	23.3	23.3	23.3	81	18.3	0	2	248	0.00	29.791 
21:40	23.3	23.3	23.3	81	18.3	0	1	248	0.00	29.791 
21:45	23.3	23.3	23.3	81	18.3	0	1	248	0.00	29.789 
21:50	23.3	23.3	23.3	81	18.3	0	0	---	0.00	29.789 
21:55	23.3	23.3	23.3	81	18.3	0	1	248	0.00	29.789 
22:00	23.3	23.3	23.3	81	18.3	1	3	248	0.00	29.790 
22:05	23.5	23.5	23.5	82	18.8	0	1	248	0.00	29.790 
22:10	23.3	23.3	23.3	82	18.6	0	2	248	0.00	29.790 
22:15	23.3	23.3	23.3	82	18.6	0	1	248	0.00	29.787 
22:20	23.3	23.3	23.3	82	18.6	0	1	248	0.00	29.787 
22:25	23.3	23.3	23.3	82	18.6	0	1	248	0.00	29.787 
22:30	23.3	23.3	23.3	82	18.6	0	2	248	0.00	29.786 
22:35	23.2	23.2	23.2	83	18.8	0	2	248	0.00	29.786 
22:40	23.2	23.2	23.2	83	18.8	0	2	248	0.00	29.786 
22:45	23.2	23.2	23.2	83	18.8	0	1	248	0.00	29.780 
22:50	23.2	23.2	23.2	83	18.8	0	1	248	0.00	29.780 
22:55	23.0	23.0	23.0	83	18.6	0	1	248	0.00	29.780 
23:00	22.9	22.9	22.9	83	18.5	0	0	---	0.00	29.774 
23:05	22.7	22.7	22.7	83	18.3	0	0	---	0.00	29.774 
23:10	22.5	22.5	22.5	83	18.1	0	0	---	0.00	29.774 
23:15	22.4	22.4	22.4	84	18.3	0	1	248	0.00	29.771 
23:20	22.5	22.5	22.5	84	18.4	0	1	248	0.00	29.771 
23:25	22.5	22.5	22.5	84	18.4	0	0	---	0.00	29.771 
23:30	22.4	22.4	22.4	84	18.3	0	0	---	0.00	29.762 
23:35	22.2	22.2	22.2	84	18.1	0	0	---	0.00	29.762 
23:40	22.2	22.2	22.2	84	18.1	0	1	248	0.00	29.762 
23:45	22.2	22.2	22.2	84	18.1	0	0	---	0.00	29.761 
23:50	22.1	22.1	22.1	84	18.0	0	1	248	0.00	29.761 
23:55	22.2	22.2	22.2	85	18.4	0	1	248	0.00	29.761 

CoCoRaHS
IN-AL-39
A2 Web Hosting
Creative Commons License
GoDaddy
Look for:

loaded 2017-10-16 20:18:24 • last modified 2010-11-18 10:43:29
Privacy PolicyDisclaimer
• wx.awcolley.com is powered by PmWiki v.2002016 •
• all content (unless otherwise noted) © 2017 A W Colley